createdAt,value
2022-10-22T00:01:54.680Z,9.16
2022-10-22T00:03:56.373Z,9.24
2022-10-22T00:05:58.211Z,9.16
2022-10-22T00:07:59.983Z,9.25
2022-10-22T00:10:02.136Z,9.16
2022-10-22T00:12:04.157Z,9.23
2022-10-22T00:14:06.656Z,9.28
2022-10-22T00:16:08.735Z,9.30
2022-10-22T00:18:10.485Z,9.33
2022-10-22T00:20:12.671Z,9.22
2022-10-22T00:22:14.450Z,9.13
2022-10-22T00:24:16.211Z,9.24
2022-10-22T00:26:18.241Z,9.33
2022-10-22T00:28:20.060Z,9.33
2022-10-22T00:30:21.853Z,9.28
2022-10-22T00:32:23.842Z,9.27
2022-10-22T00:34:25.697Z,9.29
2022-10-22T00:36:27.532Z,9.33
2022-10-22T00:38:29.369Z,9.37
2022-10-22T00:40:31.464Z,9.40
2022-10-22T00:42:33.202Z,9.39
2022-10-22T00:45:12.061Z,9.41
2022-10-22T00:47:15.179Z,9.35
2022-10-22T00:49:16.943Z,9.18
2022-10-22T00:51:20.671Z,9.20
2022-10-22T00:53:41.002Z,9.28
2022-10-22T00:55:45.575Z,9.27
2022-10-22T00:57:48.055Z,9.33
2022-10-22T00:59:49.987Z,9.39
2022-10-22T01:01:51.704Z,9.35
2022-10-22T01:03:53.966Z,9.40
2022-10-22T01:06:00.996Z,9.36
2022-10-22T01:08:03.016Z,9.35
2022-10-22T01:10:33.664Z,9.40
2022-10-22T01:13:19.643Z,9.47
2022-10-22T01:15:33.816Z,9.61
2022-10-22T01:17:56.120Z,9.68
2022-10-22T01:20:32.247Z,9.55
2022-10-22T01:22:46.421Z,9.37
2022-10-22T01:25:17.395Z,9.39
2022-10-22T01:27:40.980Z,9.45
2022-10-22T01:29:48.368Z,9.43
2022-10-22T01:32:05.111Z,9.35
2022-10-22T01:34:12.102Z,9.35
2022-10-22T01:36:15.431Z,9.45
2022-10-22T01:38:22.289Z,9.49
2022-10-22T01:40:24.876Z,9.44
2022-10-22T01:42:26.621Z,9.45
2022-10-22T01:44:30.794Z,9.41
2022-10-22T01:46:32.906Z,9.37
2022-10-22T01:49:16.266Z,9.49
2022-10-22T01:51:37.735Z,9.49
2022-10-22T01:54:14.862Z,9.56
2022-10-22T01:56:40.815Z,9.53
2022-10-22T01:59:00.211Z,9.63
2022-10-22T02:01:05.028Z,9.74
2022-10-22T02:03:23.005Z,9.70
2022-10-22T02:05:29.638Z,9.80
2022-10-22T02:07:36.123Z,9.87
2022-10-22T02:09:38.823Z,9.81
2022-10-22T02:11:42.165Z,9.89
2022-10-22T02:13:48.644Z,10.02
2022-10-22T02:15:52.782Z,9.93
2022-10-22T02:17:58.712Z,9.81
2022-10-22T02:20:20.358Z,10.01
2022-10-22T02:22:22.366Z,10.13
2022-10-22T02:24:24.416Z,10.06
2022-10-22T02:26:39.489Z,10.05
2022-10-22T02:29:03.661Z,10.25
2022-10-22T02:31:26.436Z,10.36
2022-10-22T02:33:33.959Z,10.10
2022-10-22T02:35:36.987Z,10.03
2022-10-22T02:37:40.242Z,9.99
2022-10-22T02:39:42.741Z,10.11
2022-10-22T02:41:44.743Z,10.27
2022-10-22T02:43:51.524Z,10.18
2022-10-22T02:45:53.294Z,10.36
2022-10-22T02:47:55.107Z,10.49
2022-10-22T02:49:56.883Z,10.43
2022-10-22T02:51:58.595Z,10.44
2022-10-22T02:54:00.404Z,10.41
2022-10-22T02:56:02.217Z,10.52
2022-10-22T02:58:03.936Z,10.38
2022-10-22T03:00:07.670Z,10.49
2022-10-22T03:02:09.266Z,10.35
2022-10-22T03:04:11.029Z,10.33
2022-10-22T03:06:13.027Z,10.43
2022-10-22T03:08:14.812Z,10.54
2022-10-22T03:10:16.583Z,10.64
2022-10-22T03:12:18.434Z,10.68
2022-10-22T03:14:20.374Z,10.60
2022-10-22T03:16:22.477Z,10.49
2022-10-22T03:18:24.749Z,10.61
2022-10-22T03:20:26.870Z,10.58
2022-10-22T03:22:32.599Z,10.67
2022-10-22T03:24:42.841Z,10.52
2022-10-22T03:26:45.686Z,10.68
2022-10-22T03:28:47.467Z,10.60
2022-10-22T03:30:49.565Z,10.38
2022-10-22T03:32:51.507Z,10.64
2022-10-22T03:34:53.207Z,10.77
2022-10-22T03:36:57.667Z,10.62
2022-10-22T03:39:01.372Z,10.68
2022-10-22T03:41:03.152Z,10.68
2022-10-22T03:43:05.254Z,10.63
2022-10-22T03:45:08.108Z,10.67
2022-10-22T03:47:10.394Z,10.71
2022-10-22T03:49:12.245Z,10.76
2022-10-22T03:51:14.361Z,10.83
2022-10-22T03:53:16.056Z,10.76
2022-10-22T03:55:17.918Z,10.81
2022-10-22T03:57:19.738Z,10.89
2022-10-22T03:59:21.423Z,10.81
2022-10-22T04:01:24.519Z,10.80
2022-10-22T04:03:26.330Z,10.73
2022-10-22T04:05:28.027Z,10.73
2022-10-22T04:07:29.996Z,10.50
2022-10-22T04:09:32.873Z,10.65
2022-10-22T04:11:34.557Z,10.77
2022-10-22T04:13:36.720Z,10.72
2022-10-22T04:15:38.605Z,10.90
2022-10-22T04:17:40.654Z,10.82
2022-10-22T04:19:42.868Z,10.68
2022-10-22T04:21:44.917Z,10.47
2022-10-22T04:23:48.393Z,10.55
2022-10-22T04:25:50.168Z,10.58
2022-10-22T04:27:51.948Z,10.68
2022-10-22T04:29:53.626Z,10.55
2022-10-22T04:31:55.486Z,10.50
2022-10-22T04:34:00.594Z,10.53
2022-10-22T04:36:17.112Z,10.70
2022-10-22T04:38:19.048Z,10.80
2022-10-22T04:40:21.053Z,10.61
2022-10-22T04:42:22.749Z,10.64
2022-10-22T04:44:24.661Z,10.71
2022-10-22T04:46:28.848Z,10.68
2022-10-22T04:48:30.577Z,10.56
2022-10-22T04:50:32.481Z,10.55
2022-10-22T04:52:34.324Z,10.65
2022-10-22T04:54:36.149Z,10.50
2022-10-22T04:56:38.120Z,10.55
2022-10-22T04:58:40.120Z,10.58
2022-10-22T05:00:41.896Z,10.62
2022-10-22T05:02:43.981Z,10.61
2022-10-22T05:04:45.659Z,10.54
2022-10-22T05:06:47.832Z,10.67
2022-10-22T05:08:57.563Z,10.51
2022-10-22T05:10:59.335Z,10.63
2022-10-22T05:13:01.030Z,10.75
2022-10-22T05:15:03.066Z,10.75
2022-10-22T05:17:04.741Z,10.75
2022-10-22T05:19:07.116Z,10.65
2022-10-22T05:21:11.276Z,10.80
2022-10-22T05:23:12.960Z,10.84
2022-10-22T05:25:14.715Z,10.74
2022-10-22T05:27:16.575Z,10.73
2022-10-22T05:29:19.064Z,10.86
2022-10-22T05:31:20.942Z,10.90
2022-10-22T05:33:24.128Z,10.89
2022-10-22T05:35:26.037Z,10.98
2022-10-22T05:37:27.741Z,10.95
2022-10-22T05:39:29.747Z,10.94
2022-10-22T05:41:33.245Z,10.95
2022-10-22T05:43:35.345Z,11.04
2022-10-22T05:45:41.233Z,11.04
2022-10-22T05:47:42.947Z,10.79
2022-10-22T05:49:44.660Z,10.68
2022-10-22T05:51:47.007Z,10.72
2022-10-22T05:53:52.862Z,10.68
2022-10-22T05:55:54.576Z,10.64
2022-10-22T05:57:56.522Z,10.67
2022-10-22T05:59:58.258Z,10.81
2022-10-22T06:02:00.008Z,10.86
2022-10-22T06:04:04.819Z,10.85
2022-10-22T06:06:37.899Z,10.96
2022-10-22T06:08:39.673Z,10.98
2022-10-22T06:10:43.772Z,11.00
2022-10-22T06:12:47.755Z,11.12
2022-10-22T06:14:49.466Z,11.13
2022-10-22T06:16:51.362Z,11.18
2022-10-22T06:18:53.059Z,11.17
2022-10-22T06:20:54.813Z,11.20
2022-10-22T06:22:57.025Z,11.27
2022-10-22T06:24:58.711Z,11.23
2022-10-22T06:27:00.411Z,11.32
2022-10-22T06:29:02.682Z,11.38
2022-10-22T06:31:05.292Z,11.24
2022-10-22T06:33:07.021Z,11.13
2022-10-22T06:35:08.913Z,11.25
2022-10-22T06:37:10.771Z,11.45
2022-10-22T06:39:17.780Z,11.39
2022-10-22T06:41:19.908Z,11.45
2022-10-22T06:43:21.625Z,11.28
2022-10-22T06:45:23.293Z,11.20
2022-10-22T06:47:25.175Z,11.22
2022-10-22T06:49:26.889Z,11.18
2022-10-22T06:51:29.039Z,11.22
2022-10-22T06:53:31.029Z,11.15
2022-10-22T06:55:32.733Z,11.11
2022-10-22T06:57:34.448Z,11.23
2022-10-22T06:59:36.543Z,11.34
2022-10-22T07:01:38.472Z,11.31
2022-10-22T07:03:42.478Z,11.30
2022-10-22T07:05:44.638Z,11.24
2022-10-22T07:07:46.397Z,11.14
2022-10-22T07:09:48.601Z,11.15
2022-10-22T07:11:50.504Z,11.18
2022-10-22T07:13:54.702Z,11.25
2022-10-22T07:15:56.468Z,11.23
2022-10-22T07:17:58.501Z,11.26
2022-10-22T07:20:00.248Z,11.35
2022-10-22T07:22:02.160Z,11.32
2022-10-22T07:24:04.190Z,11.33
2022-10-22T07:26:07.231Z,11.13
2022-10-22T07:28:09.062Z,11.26
2022-10-22T07:30:11.442Z,11.34
2022-10-22T07:32:13.129Z,11.22
2022-10-22T07:34:15.007Z,11.18
2022-10-22T07:36:17.214Z,11.24
2022-10-22T07:38:18.924Z,11.17
2022-10-22T07:40:20.920Z,11.32
2022-10-22T07:42:22.832Z,11.41
2022-10-22T07:44:24.567Z,11.63
2022-10-22T07:46:26.657Z,11.61
2022-10-22T07:48:29.295Z,11.56
2022-10-22T07:50:31.110Z,11.47
2022-10-22T07:52:33.421Z,11.48
2022-10-22T07:54:35.252Z,11.58
2022-10-22T07:56:36.976Z,11.61
2022-10-22T07:58:38.718Z,11.71
2022-10-22T08:00:41.129Z,11.76
2022-10-22T08:02:43.260Z,11.63
2022-10-22T08:04:45.210Z,11.60
2022-10-22T08:06:47.369Z,11.67
2022-10-22T08:08:49.758Z,11.59
2022-10-22T08:10:52.501Z,11.43
2022-10-22T08:12:54.937Z,11.58
2022-10-22T08:14:56.626Z,11.50
2022-10-22T08:16:58.317Z,11.60
2022-10-22T08:19:00.241Z,11.71
2022-10-22T08:21:01.941Z,11.61
2022-10-22T08:23:03.733Z,11.69
2022-10-22T08:25:05.984Z,11.76
2022-10-22T08:27:07.684Z,11.51
2022-10-22T08:29:09.369Z,11.42
2022-10-22T08:31:11.717Z,11.48
2022-10-22T08:33:13.413Z,11.48
2022-10-22T08:35:16.955Z,11.63
2022-10-22T08:37:19.766Z,11.58
2022-10-22T08:39:22.174Z,11.50
2022-10-22T08:41:24.513Z,11.55
2022-10-22T08:44:03.443Z,11.68
2022-10-22T08:46:33.244Z,11.76
2022-10-22T08:48:53.030Z,11.89
2022-10-22T08:50:57.731Z,11.89
2022-10-22T08:53:04.592Z,11.86
2022-10-22T08:55:14.604Z,11.88
2022-10-22T08:57:39.700Z,11.85
2022-10-22T08:59:47.172Z,11.86
2022-10-22T09:01:53.305Z,11.93
2022-10-22T09:04:14.043Z,11.86
2022-10-22T09:06:25.125Z,12.01
2022-10-22T09:08:27.026Z,11.99
2022-10-22T09:10:35.630Z,11.79
2022-10-22T09:12:37.443Z,11.89
2022-10-22T09:14:39.578Z,11.88
2022-10-22T09:17:02.624Z,12.12
2022-10-22T09:19:26.232Z,12.35
2022-10-22T09:21:55.766Z,12.32
2022-10-22T09:24:29.545Z,12.14
2022-10-22T09:26:37.906Z,12.17
2022-10-22T09:28:39.650Z,12.21
2022-10-22T09:30:41.806Z,12.37
2022-10-22T09:32:43.943Z,12.35
2022-10-22T09:34:48.104Z,12.32
2022-10-22T09:37:04.987Z,12.40
2022-10-22T09:39:24.121Z,12.42
2022-10-22T09:41:28.364Z,12.44
2022-10-22T09:43:30.308Z,12.35
2022-10-22T09:45:32.452Z,12.40
2022-10-22T09:47:43.478Z,12.37
2022-10-22T09:50:18.439Z,12.35
2022-10-22T09:52:30.540Z,12.40
2022-10-22T09:54:32.250Z,12.38
2022-10-22T09:56:37.301Z,12.28
2022-10-22T09:58:47.167Z,12.27
2022-10-22T10:00:57.442Z,12.37
2022-10-22T10:03:00.289Z,12.43
2022-10-22T10:05:03.889Z,12.63
2022-10-22T10:07:16.637Z,12.61
2022-10-22T10:09:23.468Z,12.49
2022-10-22T10:11:50.361Z,12.52
2022-10-22T10:13:52.028Z,12.40
2022-10-22T10:16:02.613Z,12.40
2022-10-22T10:18:33.886Z,12.44
2022-10-22T10:20:38.708Z,12.68
2022-10-22T10:22:55.354Z,12.64
2022-10-22T10:25:12.419Z,12.56
2022-10-22T10:27:31.969Z,12.45
2022-10-22T10:29:51.777Z,12.40
2022-10-22T10:32:22.324Z,12.52
2022-10-22T10:34:28.895Z,12.44
2022-10-22T10:36:56.750Z,12.51
2022-10-22T10:39:38.874Z,12.63
2022-10-22T10:41:59.329Z,12.65
2022-10-22T10:44:14.611Z,12.65
2022-10-22T10:46:52.458Z,12.71
2022-10-22T10:49:09.893Z,12.80
2022-10-22T10:51:33.162Z,12.82
2022-10-22T10:54:25.519Z,12.90
2022-10-22T10:56:41.842Z,12.88
2022-10-22T10:59:13.741Z,12.79
2022-10-22T11:01:27.221Z,12.80
2022-10-22T11:04:13.382Z,12.92
2022-10-22T11:06:21.602Z,12.91
2022-10-22T11:08:40.682Z,12.65
2022-10-22T11:11:01.664Z,12.64
2022-10-22T11:13:31.959Z,12.75
2022-10-22T11:15:39.624Z,12.91
2022-10-22T11:17:45.777Z,13.09
2022-10-22T11:20:02.621Z,13.22
2022-10-22T11:22:30.407Z,13.08
2022-10-22T11:24:52.199Z,13.00
2022-10-22T11:27:02.808Z,12.99
2022-10-22T11:29:11.754Z,13.06
2022-10-22T11:31:15.855Z,13.33
2022-10-22T11:33:21.496Z,13.51
2022-10-22T11:35:35.998Z,13.45
2022-10-22T11:37:38.301Z,13.43
2022-10-22T11:39:51.372Z,13.56
2022-10-22T11:41:53.369Z,13.53
2022-10-22T11:44:11.705Z,13.33
2022-10-22T11:46:16.337Z,13.41
2022-10-22T11:48:19.255Z,13.49
2022-10-22T11:50:26.727Z,13.44
2022-10-22T11:52:31.355Z,13.62
2022-10-22T11:54:35.695Z,13.50
2022-10-22T11:56:39.047Z,13.38
2022-10-22T11:58:42.472Z,13.45
2022-10-22T12:00:49.036Z,13.49
2022-10-22T12:03:04.845Z,13.43
2022-10-22T12:05:39.260Z,13.36
2022-10-22T12:08:15.915Z,13.28
2022-10-22T12:10:25.721Z,13.23
2022-10-22T12:12:27.441Z,13.18
2022-10-22T12:14:52.363Z,13.12
2022-10-22T12:17:03.224Z,13.08
2022-10-22T12:19:24.405Z,13.14
2022-10-22T12:21:26.695Z,13.11
2022-10-22T12:23:35.189Z,13.05
2022-10-22T12:25:37.178Z,12.93
2022-10-22T12:27:41.160Z,12.96
2022-10-22T12:29:43.292Z,13.00
2022-10-22T12:31:47.390Z,12.97
2022-10-22T12:33:56.574Z,13.05
2022-10-22T12:35:58.575Z,13.21
2022-10-22T12:38:13.377Z,13.10
2022-10-22T12:40:25.765Z,12.91
2022-10-22T12:42:27.652Z,12.87
2022-10-22T12:44:29.369Z,12.95
2022-10-22T12:46:34.525Z,13.18
2022-10-22T12:48:40.272Z,13.11
2022-10-22T12:50:45.961Z,13.06
2022-10-22T12:52:48.935Z,13.18
2022-10-22T12:54:52.508Z,13.15
2022-10-22T12:56:55.292Z,13.20
2022-10-22T12:59:02.180Z,13.14
2022-10-22T13:01:04.561Z,13.19
2022-10-22T13:03:07.261Z,13.20
2022-10-22T13:05:26.576Z,13.24
2022-10-22T13:07:39.244Z,13.27
2022-10-22T13:09:57.669Z,13.36
2022-10-22T13:12:07.762Z,13.39
2022-10-22T13:14:30.294Z,13.40
2022-10-22T13:18:36.438Z,13.48
2022-10-22T13:20:54.272Z,13.40
2022-10-22T13:23:00.965Z,13.42
2022-10-22T13:25:14.715Z,13.19
2022-10-22T13:27:16.668Z,13.47
2022-10-22T13:29:20.351Z,13.56
2022-10-22T13:31:26.349Z,13.63
2022-10-22T13:33:34.795Z,13.63
2022-10-22T13:35:38.227Z,13.68
2022-10-22T13:37:40.258Z,13.75
2022-10-22T13:39:42.340Z,13.79
2022-10-22T13:41:44.031Z,13.85
2022-10-22T13:43:45.913Z,13.70
2022-10-22T13:45:52.134Z,13.83
2022-10-22T13:47:54.859Z,13.89
2022-10-22T13:50:00.527Z,13.93
2022-10-22T13:52:02.303Z,13.93
2022-10-22T13:54:11.008Z,13.90
2022-10-22T13:56:17.854Z,13.94
2022-10-22T13:58:22.051Z,13.94
2022-10-22T14:00:24.751Z,13.87
2022-10-22T14:02:26.995Z,13.90
2022-10-22T14:04:28.719Z,13.95
2022-10-22T14:06:32.545Z,13.97
2022-10-22T14:08:34.443Z,14.02
2022-10-22T14:10:36.185Z,14.04
2022-10-22T14:12:37.939Z,14.03
2022-10-22T14:14:40.000Z,14.03
2022-10-22T14:16:41.941Z,13.87
2022-10-22T14:18:43.825Z,13.66
2022-10-22T14:20:45.766Z,13.64
2022-10-22T14:22:49.107Z,13.68
2022-10-22T14:24:50.786Z,13.70
2022-10-22T14:26:52.885Z,13.75
2022-10-22T14:29:11.442Z,13.47
2022-10-22T14:31:13.723Z,13.56
2022-10-22T14:33:22.562Z,13.57
2022-10-22T14:35:25.904Z,13.43
2022-10-22T14:37:27.627Z,13.40
2022-10-22T14:39:29.589Z,13.37
2022-10-22T14:41:31.373Z,13.38
2022-10-22T14:43:33.075Z,13.40
2022-10-22T14:45:34.819Z,13.31
2022-10-22T14:47:36.519Z,13.36
2022-10-22T14:49:38.286Z,13.34
2022-10-22T14:51:40.067Z,13.36
2022-10-22T14:53:42.289Z,13.28
2022-10-22T14:55:45.712Z,13.20
2022-10-22T14:57:47.832Z,13.21
2022-10-22T14:59:49.556Z,13.30
2022-10-22T15:01:51.260Z,13.44
2022-10-22T15:03:53.154Z,13.43
2022-10-22T15:05:54.881Z,13.38
2022-10-22T15:07:56.560Z,13.38
2022-10-22T15:09:58.307Z,13.43
2022-10-22T15:11:59.985Z,13.45
2022-10-22T15:14:01.833Z,13.43
2022-10-22T15:16:07.712Z,13.42
2022-10-22T15:18:09.412Z,13.47
2022-10-22T15:20:11.186Z,13.42
2022-10-22T15:22:13.868Z,13.46
2022-10-22T15:24:15.642Z,13.49
2022-10-22T15:26:17.894Z,13.11
2022-10-22T15:28:19.903Z,13.14
2022-10-22T15:30:21.617Z,13.04
2022-10-22T15:32:23.299Z,12.99
2022-10-22T15:34:33.829Z,13.05
2022-10-22T15:36:35.573Z,13.00
2022-10-22T15:38:37.318Z,12.94
2022-10-22T15:40:39.387Z,12.96
2022-10-22T15:42:41.368Z,12.97
2022-10-22T15:44:43.309Z,12.99
2022-10-22T15:46:45.324Z,12.99
2022-10-22T15:48:47.072Z,13.03
2022-10-22T15:50:49.311Z,13.00
2022-10-22T15:52:51.129Z,12.99
2022-10-22T15:54:52.909Z,12.95
2022-10-22T15:56:55.603Z,12.99
2022-10-22T15:59:00.217Z,12.96
2022-10-22T16:01:10.950Z,12.94
2022-10-22T16:03:12.704Z,12.91
2022-10-22T16:05:14.724Z,12.85
2022-10-22T16:07:18.040Z,12.90
2022-10-22T16:09:26.243Z,12.88
2022-10-22T16:11:29.093Z,12.91
2022-10-22T16:13:30.810Z,12.92
2022-10-22T16:15:35.224Z,13.06
2022-10-22T16:17:36.980Z,13.10
2022-10-22T16:19:38.735Z,13.14
2022-10-22T16:21:41.023Z,13.07
2022-10-22T16:23:43.282Z,12.89
2022-10-22T16:25:45.972Z,12.81
2022-10-22T16:27:51.843Z,12.77
2022-10-22T16:29:53.724Z,12.86
2022-10-22T16:31:55.430Z,12.75
2022-10-22T16:33:57.960Z,12.73
2022-10-22T16:35:59.819Z,12.75
2022-10-22T16:38:01.517Z,12.74
2022-10-22T16:40:07.391Z,12.82
2022-10-22T16:42:10.260Z,12.82
2022-10-22T16:44:11.957Z,12.91
2022-10-22T16:46:14.502Z,12.82
2022-10-22T16:48:17.786Z,12.84
2022-10-22T16:50:19.518Z,12.78
2022-10-22T16:52:21.262Z,12.83
2022-10-22T16:54:23.150Z,12.87
2022-10-22T16:56:25.683Z,12.83
2022-10-22T16:58:27.483Z,12.77
2022-10-22T17:00:29.275Z,12.80
2022-10-22T17:02:31.096Z,12.83
2022-10-22T17:04:34.268Z,12.83
2022-10-22T17:06:36.120Z,12.81
2022-10-22T17:08:39.474Z,12.81
2022-10-22T17:10:41.465Z,12.85
2022-10-22T17:12:43.495Z,12.79
2022-10-22T17:14:45.407Z,12.82
2022-10-22T17:16:47.179Z,12.74
2022-10-22T17:18:49.549Z,12.84
2022-10-22T17:20:51.252Z,12.88
2022-10-22T17:22:52.989Z,12.90
2022-10-22T17:25:09.434Z,12.94
2022-10-22T17:27:11.177Z,12.91
2022-10-22T17:29:13.971Z,12.86
2022-10-22T17:31:42.436Z,12.94
2022-10-22T17:33:45.124Z,12.92
2022-10-22T17:35:46.843Z,12.94
2022-10-22T17:37:48.642Z,12.91
2022-10-22T17:39:50.387Z,12.92
2022-10-22T17:41:52.701Z,12.87
2022-10-22T17:43:55.368Z,12.93
2022-10-22T17:46:08.201Z,12.90
2022-10-22T17:48:09.957Z,12.91
2022-10-22T17:50:11.827Z,12.88
2022-10-22T17:52:14.490Z,12.84
2022-10-22T17:54:16.323Z,12.86
2022-10-22T17:56:28.923Z,12.85
2022-10-22T17:58:30.680Z,12.85
2022-10-22T18:00:32.559Z,12.82
2022-10-22T18:02:35.795Z,12.79
2022-10-22T18:04:37.593Z,12.80
2022-10-22T18:06:39.299Z,12.80
2022-10-22T18:08:41.340Z,12.80
2022-10-22T18:10:43.230Z,12.80
2022-10-22T18:12:45.676Z,12.77
2022-10-22T18:14:47.477Z,12.70
2022-10-22T18:16:50.225Z,12.66
2022-10-22T18:18:54.453Z,12.76
2022-10-22T18:20:56.293Z,12.74
2022-10-22T18:22:58.104Z,12.60
2022-10-22T18:24:59.890Z,12.68
2022-10-22T18:27:01.931Z,12.69
2022-10-22T18:29:03.693Z,12.54
2022-10-22T18:31:06.900Z,12.67
2022-10-22T18:33:11.877Z,12.62
2022-10-22T18:35:13.653Z,12.72
2022-10-22T18:37:15.392Z,12.58
2022-10-22T18:39:17.456Z,12.54
2022-10-22T18:41:20.361Z,12.60
2022-10-22T18:43:22.130Z,12.64
2022-10-22T18:45:24.046Z,12.76
2022-10-22T18:47:25.836Z,12.78
2022-10-22T18:49:27.575Z,12.84
2022-10-22T18:51:30.980Z,12.67
2022-10-22T18:53:32.878Z,12.81
2022-10-22T18:55:38.066Z,12.86
2022-10-22T18:57:41.791Z,12.90
2022-10-22T18:59:43.369Z,12.88
2022-10-22T19:01:45.226Z,12.87
2022-10-22T19:03:47.345Z,12.88
2022-10-22T19:05:52.918Z,12.83
2022-10-22T19:07:54.714Z,12.62
2022-10-22T19:09:59.031Z,12.78
2022-10-22T19:12:01.237Z,12.92
2022-10-22T19:14:03.403Z,12.74
2022-10-22T19:16:07.225Z,12.73
2022-10-22T19:18:09.124Z,12.72
2022-10-22T19:20:11.263Z,12.54
2022-10-22T19:22:13.125Z,12.68
2022-10-22T19:24:17.888Z,12.53
2022-10-22T19:26:19.652Z,12.72
2022-10-22T19:28:21.487Z,12.59
2022-10-22T19:30:23.282Z,12.60
2022-10-22T19:32:27.500Z,12.69
2022-10-22T19:34:32.671Z,12.55
2022-10-22T19:36:34.416Z,12.61
2022-10-22T19:38:42.213Z,12.43
2022-10-22T19:40:44.435Z,12.64
2022-10-22T19:42:46.188Z,12.70
2022-10-22T19:44:48.727Z,12.64
2022-10-22T19:46:50.441Z,12.70
2022-10-22T19:48:52.474Z,12.81
2022-10-22T19:51:02.707Z,12.66
2022-10-22T19:53:04.556Z,12.47
2022-10-22T19:55:06.406Z,12.69
2022-10-22T19:57:08.737Z,12.58
2022-10-22T19:59:11.331Z,12.68
2022-10-22T20:01:15.441Z,12.62
2022-10-22T20:03:17.506Z,12.69
2022-10-22T20:05:19.586Z,12.62
2022-10-22T20:07:21.330Z,12.69
2022-10-22T20:09:23.151Z,12.77
2022-10-22T20:11:28.999Z,12.78
2022-10-22T20:13:30.850Z,12.79
2022-10-22T20:15:33.445Z,12.74
2022-10-22T20:17:35.278Z,12.68
2022-10-22T20:19:37.235Z,12.73
2022-10-22T20:21:39.032Z,12.71
2022-10-22T20:23:41.607Z,12.74
2022-10-22T20:25:45.466Z,12.81
2022-10-22T20:27:47.196Z,12.75
2022-10-22T20:29:49.006Z,12.83
2022-10-22T20:31:50.766Z,12.67
2022-10-22T20:33:52.904Z,12.73
2022-10-22T20:36:01.920Z,12.73
2022-10-22T20:38:08.233Z,12.74
2022-10-22T20:40:10.591Z,12.80
2022-10-22T20:42:12.414Z,12.69
2022-10-22T20:44:18.440Z,12.74
2022-10-22T20:46:25.601Z,12.63
2022-10-22T20:48:29.059Z,12.80
2022-10-22T20:50:31.385Z,12.55
2022-10-22T20:52:33.067Z,12.60
2022-10-22T20:54:34.921Z,12.58
2022-10-22T20:56:38.872Z,12.60
2022-10-22T20:58:40.659Z,12.72
2022-10-22T21:00:42.797Z,12.70
2022-10-22T21:02:44.590Z,12.69
2022-10-22T21:04:46.527Z,12.66
2022-10-22T21:06:48.406Z,12.67
2022-10-22T21:08:51.300Z,12.73
2022-10-22T21:10:53.111Z,12.75
2022-10-22T21:12:54.947Z,12.85
2022-10-22T21:14:56.669Z,12.80
2022-10-22T21:16:58.904Z,12.94
2022-10-22T21:19:01.107Z,13.02
2022-10-22T21:21:06.803Z,13.00
2022-10-22T21:23:09.641Z,13.06
2022-10-22T21:25:12.246Z,13.08
2022-10-22T21:27:13.985Z,12.87
2022-10-22T21:29:15.658Z,13.15
2022-10-22T21:31:17.594Z,13.13
2022-10-22T21:33:19.454Z,13.18
2022-10-22T21:35:21.155Z,13.15
2022-10-22T21:37:23.173Z,13.20
2022-10-22T21:39:25.179Z,13.20
2022-10-22T21:41:26.887Z,13.20
2022-10-22T21:43:28.703Z,13.14
2022-10-22T21:45:30.409Z,13.20
2022-10-22T21:47:32.102Z,13.21
2022-10-22T21:49:33.970Z,13.22
2022-10-22T21:51:35.780Z,13.20
2022-10-22T21:53:38.461Z,13.13
2022-10-22T21:55:41.273Z,13.06
2022-10-22T21:57:43.327Z,13.13
2022-10-22T21:59:45.211Z,13.05
2022-10-22T22:01:47.223Z,13.06
2022-10-22T22:03:50.574Z,13.10
2022-10-22T22:06:01.209Z,13.11
2022-10-22T22:08:03.102Z,13.08
2022-10-22T22:10:05.351Z,13.15
2022-10-22T22:12:07.093Z,13.14
2022-10-22T22:14:08.962Z,13.13
2022-10-22T22:16:14.199Z,13.04
2022-10-22T22:18:15.899Z,13.03
2022-10-22T22:20:17.893Z,13.02
2022-10-22T22:22:19.627Z,12.96
2022-10-22T22:24:21.358Z,12.96
2022-10-22T22:26:28.382Z,13.02
2022-10-22T22:28:32.566Z,13.00
2022-10-22T22:30:34.302Z,12.96
2022-10-22T22:32:36.068Z,13.03
2022-10-22T22:34:37.821Z,12.97
2022-10-22T22:36:44.304Z,13.10
2022-10-22T22:38:46.127Z,13.14
2022-10-22T22:40:47.881Z,13.11
2022-10-22T22:42:49.594Z,13.21
2022-10-22T22:44:51.629Z,13.10
2022-10-22T22:46:53.354Z,13.21
2022-10-22T22:48:55.142Z,13.14
2022-10-22T22:50:57.098Z,13.16
2022-10-22T22:52:58.805Z,13.16
2022-10-22T22:55:00.527Z,13.19
2022-10-22T22:57:02.429Z,13.23
2022-10-22T22:59:05.505Z,13.28
2022-10-22T23:01:14.450Z,13.25
2022-10-22T23:03:16.321Z,13.17
2022-10-22T23:05:18.052Z,13.21
2022-10-22T23:07:19.740Z,13.18
2022-10-22T23:09:21.728Z,13.20
2022-10-22T23:11:25.534Z,13.18
2022-10-22T23:13:27.245Z,13.14
2022-10-22T23:15:29.029Z,13.18
2022-10-22T23:17:30.820Z,13.30
2022-10-22T23:19:32.915Z,13.16
2022-10-22T23:21:37.640Z,13.22
2022-10-22T23:23:42.148Z,13.19
2022-10-22T23:25:45.379Z,13.26
2022-10-22T23:27:47.161Z,13.31
2022-10-22T23:29:48.866Z,13.31
2022-10-22T23:31:51.360Z,13.26
2022-10-22T23:33:53.200Z,13.27
2022-10-22T23:35:54.957Z,13.26
2022-10-22T23:37:56.657Z,13.28
2022-10-22T23:39:58.462Z,13.26
2022-10-22T23:42:00.617Z,13.34
2022-10-22T23:44:03.293Z,13.19
2022-10-22T23:46:07.151Z,13.21
2022-10-22T23:48:09.091Z,13.22
2022-10-22T23:50:10.774Z,13.36
2022-10-22T23:52:12.754Z,13.28
2022-10-22T23:54:16.779Z,13.29
2022-10-22T23:56:18.512Z,13.34
2022-10-22T23:58:20.386Z,13.32
